Time;durP1;ratioP1;P1;durP2;ratioP2;P2;SDS_P1;SDS_P2;PMS_P1;PMS_P2;Temp;Humidity;BMP_temperature;BMP_pressure;BME280_temperature;BME280_humidity;BME280_pressure;Samples;Min_cycle;Max_cycle;Signal;HPM_P1;HPM_P2
2021/09/16 00:01:45;;;;;;;5.25;0.85;;;14.80;99.90;;;;;;5063139;28;20093;-75
2021/09/16 00:04:11;;;;;;;3.80;0.65;;;14.80;99.90;;;;;;5068074;28;20094;-74
2021/09/16 00:06:37;;;;;;;5.78;0.85;;;14.80;99.90;;;;;;5081357;28;20039;-75
2021/09/16 00:09:06;;;;;;;7.32;0.70;;;14.70;99.90;;;;;;5068915;28;20043;-74
2021/09/16 00:11:32;;;;;;;6.40;1.42;;;14.70;99.90;;;;;;5083724;28;20130;-74
2021/09/16 00:13:58;;;;;;;3.70;0.57;;;14.70;99.90;;;;;;5090314;28;20679;-75
2021/09/16 00:16:33;;;;;;;7.40;0.70;;;14.70;99.90;;;;;;5053295;28;20040;-74
2021/09/16 00:18:59;;;;;;;5.45;1.33;;;14.70;99.90;;;;;;5050560;28;20100;-74
2021/09/16 00:21:25;;;;;;;4.28;0.70;;;14.70;99.90;;;;;;5046643;28;20048;-75
2021/09/16 00:23:51;;;;;;;4.88;0.70;;;14.70;99.90;;;;;;5062549;28;20097;-75
2021/09/16 00:26:17;;;;;;;5.70;0.90;;;14.70;99.90;;;;;;5080971;28;20044;-74
2021/09/16 00:28:42;;;;;;;7.88;1.10;;;14.70;99.90;;;;;;5059191;28;20055;-74
2021/09/16 00:31:08;;;;;;;4.68;1.00;;;14.70;99.90;;;;;;5047844;28;20459;-76
2021/09/16 00:33:34;;;;;;;5.47;1.00;;;14.70;99.90;;;;;;5069222;28;20047;-75
2021/09/16 00:36:00;;;;;;;6.68;0.80;;;14.70;99.90;;;;;;5040234;28;20039;-74
2021/09/16 00:38:27;;;;;;;8.30;0.95;;;14.70;99.90;;;;;;5068980;28;20052;-76
2021/09/16 00:40:53;;;;;;;5.47;1.45;;;14.70;99.90;;;;;;5070071;28;20044;-74
2021/09/16 00:43:18;;;;;;;6.40;1.05;;;14.70;99.90;;;;;;5029998;28;20119;-74
2021/09/16 00:45:44;;;;;;;6.78;0.80;;;14.70;99.90;;;;;;5047887;28;20058;-75
2021/09/16 00:48:10;;;;;;;5.45;1.20;;;14.60;99.90;;;;;;5079503;28;20088;-75
2021/09/16 00:50:37;;;;;;;5.45;1.00;;;14.60;99.90;;;;;;5066364;28;20044;-74
2021/09/16 00:53:03;;;;;;;4.28;0.70;;;14.60;99.90;;;;;;5077939;28;20040;-74
2021/09/16 00:55:30;;;;;;;5.78;1.17;;;14.50;99.90;;;;;;5069717;28;20074;-75
2021/09/16 00:58:01;;;;;;;4.60;0.90;;;14.50;99.90;;;;;;5077490;28;20062;-75
2021/09/16 01:00:28;;;;;;;5.28;0.73;;;14.50;99.90;;;;;;5068688;28;20055;-74
2021/09/16 01:02:54;;;;;;;5.70;0.90;;;14.50;99.90;;;;;;5057086;28;20210;-75
2021/09/16 01:05:19;;;;;;;5.85;0.98;;;14.50;99.90;;;;;;5048519;28;20048;-74
2021/09/16 01:07:45;;;;;;;3.42;0.77;;;14.50;99.90;;;;;;5047719;28;20078;-75
2021/09/16 01:10:12;;;;;;;5.70;1.67;;;14.40;99.90;;;;;;5059452;28;20040;-74
2021/09/16 01:12:39;;;;;;;6.07;1.00;;;14.40;99.90;;;;;;5057549;28;20032;-75
2021/09/16 01:15:09;;;;;;;4.30;0.88;;;14.40;99.90;;;;;;5049256;28;20036;-74
2021/09/16 01:17:35;;;;;;;3.20;0.90;;;14.40;99.90;;;;;;5051748;28;20501;-74
2021/09/16 01:20:01;;;;;;;4.13;0.80;;;14.40;99.90;;;;;;5052462;28;20139;-75
2021/09/16 01:22:35;;;;;;;4.03;1.20;;;14.40;99.90;;;;;;5078403;28;20036;-75
2021/09/16 01:25:01;;;;;;;4.03;0.93;;;14.40;99.90;;;;;;5048235;28;20102;-75
2021/09/16 01:27:26;;;;;;;5.20;0.95;;;14.40;99.90;;;;;;5075316;28;20131;-74
2021/09/16 01:29:52;;;;;;;4.93;1.50;;;14.40;99.90;;;;;;5058131;28;20052;-75
2021/09/16 01:32:18;;;;;;;7.80;1.50;;;14.40;99.90;;;;;;5054942;28;20494;-75
2021/09/16 01:34:44;;;;;;;6.53;1.42;;;14.50;99.90;;;;;;5057481;28;20105;-75
2021/09/16 01:37:10;;;;;;;9.30;1.80;;;14.50;99.90;;;;;;5073409;28;20062;-75
2021/09/16 01:39:36;;;;;;;6.35;1.27;;;14.50;99.90;;;;;;5043419;28;20032;-75
2021/09/16 01:42:03;;;;;;;9.15;1.42;;;14.50;99.90;;;;;;5049376;28;20105;-75
2021/09/16 01:44:29;;;;;;;4.30;1.40;;;14.50;99.90;;;;;;5075961;28;20066;-75
2021/09/16 01:46:55;;;;;;;6.68;1.55;;;14.50;99.90;;;;;;5061761;28;20053;-75
2021/09/16 01:49:21;;;;;;;6.03;1.50;;;14.50;99.90;;;;;;5070589;28;20042;-75
2021/09/16 01:51:46;;;;;;;5.22;1.50;;;14.60;99.90;;;;;;5047320;28;20128;-76
2021/09/16 01:54:12;;;;;;;4.55;1.08;;;14.60;99.90;;;;;;5054299;28;20055;-75
2021/09/16 01:56:38;;;;;;;7.88;1.35;;;14.50;99.90;;;;;;5057413;28;20032;-75
2021/09/16 01:59:07;;;;;;;6.05;2.33;;;14.60;99.90;;;;;;5054766;28;20116;-75
2021/09/16 02:01:32;;;;;;;6.82;2.03;;;14.60;99.90;;;;;;5071007;28;20048;-75
2021/09/16 02:03:58;;;;;;;4.07;1.50;;;14.60;99.90;;;;;;5038646;28;20144;-75
2021/09/16 02:06:24;;;;;;;8.20;1.67;;;14.60;99.90;;;;;;5036760;28;20768;-75
2021/09/16 02:08:50;;;;;;;6.25;1.63;;;14.60;99.90;;;;;;5071244;28;21035;-75
2021/09/16 02:11:16;;;;;;;7.55;1.60;;;14.60;99.90;;;;;;5057003;28;20048;-75
2021/09/16 02:13:42;;;;;;;8.65;1.33;;;14.60;99.90;;;;;;5052968;28;20142;-74
2021/09/16 02:16:07;;;;;;;6.85;1.38;;;14.60;99.90;;;;;;5072228;28;20620;-76
2021/09/16 02:18:34;;;;;;;7.50;1.50;;;14.60;99.90;;;;;;5077218;28;20040;-75
2021/09/16 02:20:59;;;;;;;7.00;2.33;;;14.60;99.90;;;;;;5057085;28;20040;-75
2021/09/16 02:23:25;;;;;;;4.32;1.50;;;14.70;99.90;;;;;;5085416;28;20048;-75
2021/09/16 02:25:51;;;;;;;7.93;1.50;;;14.70;99.90;;;;;;5062726;28;20047;-75
2021/09/16 02:28:17;;;;;;;7.07;1.98;;;14.70;99.90;;;;;;5078922;28;20039;-75
2021/09/16 02:30:42;;;;;;;9.60;1.40;;;14.70;99.90;;;;;;5065618;28;20056;-75
2021/09/16 02:33:09;;;;;;;7.57;1.40;;;14.70;99.90;;;;;;5062326;28;20054;-74
2021/09/16 02:35:35;;;;;;;8.40;1.45;;;14.80;99.90;;;;;;5065448;28;20406;-75
2021/09/16 02:38:01;;;;;;;7.03;1.60;;;14.80;99.90;;;;;;5077411;28;20061;-75
2021/09/16 02:40:27;;;;;;;5.15;1.70;;;14.80;99.90;;;;;;5065044;28;20580;-75
2021/09/16 02:42:53;;;;;;;11.73;1.75;;;14.80;99.90;;;;;;5041065;28;20035;-75
2021/09/16 02:45:22;;;;;;;5.55;1.70;;;14.90;99.90;;;;;;5084832;28;20722;-75
2021/09/16 02:47:47;;;;;;;7.57;1.60;;;14.90;99.90;;;;;;5056205;28;20040;-75
2021/09/16 02:50:13;;;;;;;6.45;1.95;;;14.90;99.90;;;;;;5070901;28;20111;-75
2021/09/16 02:52:39;;;;;;;7.07;1.52;;;14.90;99.90;;;;;;5034977;28;20101;-75
2021/09/16 02:55:06;;;;;;;6.70;2.13;;;14.90;99.90;;;;;;5063778;28;20046;-75
2021/09/16 02:57:32;;;;;;;7.30;2.00;;;14.90;99.90;;;;;;5070821;28;20068;-75
2021/09/16 02:59:57;;;;;;;9.38;2.10;;;14.90;99.90;;;;;;5058980;28;20110;-75
2021/09/16 03:02:23;;;;;;;9.20;2.20;;;14.90;99.90;;;;;;5093773;28;20779;-75
2021/09/16 03:04:49;;;;;;;8.48;2.00;;;15.00;99.90;;;;;;5060638;28;20059;-74
2021/09/16 03:07:18;;;;;;;10.75;2.00;;;15.00;99.90;;;;;;5066062;28;20051;-76
2021/09/16 03:09:47;;;;;;;6.72;2.38;;;15.00;99.90;;;;;;5069994;28;20135;-74
2021/09/16 03:12:13;;;;;;;9.13;2.80;;;15.00;99.90;;;;;;5043309;28;20127;-74
2021/09/16 03:14:39;;;;;;;5.95;2.53;;;15.00;99.90;;;;;;5062877;28;20194;-74
2021/09/16 03:17:05;;;;;;;10.05;2.63;;;15.00;99.90;;;;;;5064151;28;20043;-74
2021/09/16 03:19:30;;;;;;;8.15;2.90;;;15.10;99.90;;;;;;5046697;28;20040;-74
2021/09/16 03:21:56;;;;;;;8.10;3.05;;;15.10;99.90;;;;;;5063388;28;20042;-74
2021/09/16 03:24:22;;;;;;;6.95;3.03;;;15.10;99.90;;;;;;5068815;28;20040;-74
2021/09/16 03:26:47;;;;;;;8.05;2.67;;;15.10;99.90;;;;;;5084775;28;20031;-74
2021/09/16 03:29:13;;;;;;;8.55;3.10;;;15.10;99.90;;;;;;5082552;28;20556;-74
2021/09/16 03:31:39;;;;;;;8.20;2.90;;;15.20;99.90;;;;;;5065211;28;20156;-74
2021/09/16 03:34:05;;;;;;;9.48;2.85;;;15.10;99.90;;;;;;5051071;28;20119;-74
2021/09/16 03:36:31;;;;;;;7.18;2.67;;;15.10;99.90;;;;;;5082848;28;20044;-74
2021/09/16 03:38:56;;;;;;;8.30;2.83;;;15.10;99.90;;;;;;5096816;27;20055;-74
2021/09/16 03:41:22;;;;;;;6.53;2.55;;;15.10;99.90;;;;;;5057397;28;20428;-75
2021/09/16 03:43:48;;;;;;;9.82;2.63;;;15.20;99.90;;;;;;5084612;28;20054;-74
2021/09/16 03:46:14;;;;;;;10.63;3.40;;;15.20;99.90;;;;;;5076517;27;20398;-75
2021/09/16 03:48:39;;;;;;;10.50;3.38;;;15.20;99.90;;;;;;5082247;28;20043;-74
2021/09/16 03:51:05;;;;;;;7.47;2.72;;;15.20;99.90;;;;;;5087376;28;20201;-74
2021/09/16 03:53:31;;;;;;;8.45;2.88;;;15.20;99.90;;;;;;5083554;28;20051;-75
2021/09/16 03:55:59;;;;;;;8.23;2.90;;;15.10;99.90;;;;;;5071543;27;20540;-74
2021/09/16 03:58:28;;;;;;;9.27;3.20;;;15.10;99.90;;;;;;5082137;28;20157;-74
2021/09/16 04:01:00;;;;;;;5.78;2.25;;;15.20;99.90;;;;;;5085537;28;20127;-74
2021/09/16 04:03:26;;;;;;;6.65;2.80;;;15.10;99.90;;;;;;5050982;28;20863;-74
2021/09/16 04:05:51;;;;;;;8.60;3.30;;;15.10;99.90;;;;;;5049892;27;20036;-74
2021/09/16 04:08:17;;;;;;;11.02;3.35;;;15.10;99.90;;;;;;5051625;28;20040;-74
2021/09/16 04:10:43;;;;;;;10.05;3.33;;;15.10;99.90;;;;;;5063918;28;20035;-73
2021/09/16 04:13:09;;;;;;;6.85;3.42;;;15.10;99.90;;;;;;5068780;28;20063;-74
2021/09/16 04:15:34;;;;;;;8.48;2.72;;;15.10;99.90;;;;;;5049542;28;20040;-74
2021/09/16 04:18:00;;;;;;;9.77;3.63;;;15.00;99.90;;;;;;5072132;28;20031;-74
2021/09/16 04:20:26;;;;;;;6.15;2.85;;;15.00;99.90;;;;;;5040562;28;20031;-75
2021/09/16 04:22:52;;;;;;;7.40;2.67;;;15.00;99.90;;;;;;5064270;28;20505;-75
2021/09/16 04:25:17;;;;;;;14.38;4.22;;;15.00;99.90;;;;;;5054619;27;20528;-75
2021/09/16 04:27:43;;;;;;;6.60;3.50;;;15.00;99.90;;;;;;5065815;28;20056;-74
2021/09/16 04:30:10;;;;;;;8.65;3.17;;;15.00;99.90;;;;;;5067711;28;20122;-75
2021/09/16 04:32:37;;;;;;;8.45;3.20;;;15.00;99.90;;;;;;5080288;28;20089;-75
2021/09/16 04:35:07;;;;;;;8.43;3.47;;;15.00;99.90;;;;;;5067572;28;20043;-75
2021/09/16 04:37:36;;;;;;;10.43;4.18;;;15.00;99.90;;;;;;5072324;28;20528;-75
2021/09/16 04:40:03;;;;;;;10.75;3.50;;;15.00;99.90;;;;;;5073056;28;20051;-74
2021/09/16 04:42:29;;;;;;;8.68;3.78;;;14.90;99.90;;;;;;5088069;28;20043;-75
2021/09/16 04:44:55;;;;;;;11.63;4.05;;;15.00;99.90;;;;;;5051876;28;20044;-75
2021/09/16 04:47:21;;;;;;;10.55;4.70;;;15.00;99.90;;;;;;5073072;28;20616;-74
2021/09/16 04:49:46;;;;;;;9.25;4.20;;;15.00;99.90;;;;;;5087977;28;20047;-75
2021/09/16 04:52:12;;;;;;;8.65;4.15;;;15.00;99.90;;;;;;5074983;28;20044;-75
2021/09/16 04:54:38;;;;;;;9.05;3.95;;;15.00;99.90;;;;;;5067951;28;20047;-74
2021/09/16 04:57:04;;;;;;;12.85;4.90;;;15.00;99.90;;;;;;5053602;28;20094;-75
2021/09/16 04:59:30;;;;;;;14.60;5.22;;;15.00;99.90;;;;;;5095618;28;20043;-75
2021/09/16 05:01:55;;;;;;;10.88;4.82;;;15.00;99.90;;;;;;5062800;28;20506;-75
2021/09/16 05:04:21;;;;;;;11.27;5.20;;;15.00;99.90;;;;;;5084501;28;20084;-75
2021/09/16 05:06:47;;;;;;;9.15;4.60;;;15.00;99.90;;;;;;5068888;28;20020;-75
2021/09/16 05:09:13;;;;;;;10.63;5.18;;;15.00;99.90;;;;;;5050241;28;20040;-75
2021/09/16 05:11:41;;;;;;;11.43;5.43;;;15.00;99.90;;;;;;5078128;28;20405;-75
2021/09/16 05:14:12;;;;;;;10.88;5.28;;;15.00;99.90;;;;;;5054529;28;20050;-75
2021/09/16 05:16:42;;;;;;;14.70;5.97;;;15.10;99.90;;;;;;5069300;28;21813;-75
2021/09/16 05:19:08;;;;;;;14.95;5.68;;;15.00;99.90;;;;;;5058941;28;20043;-75
2021/09/16 05:21:34;;;;;;;15.18;6.53;;;15.10;99.90;;;;;;5075024;28;20052;-75
2021/09/16 05:24:00;;;;;;;9.23;5.80;;;15.10;99.90;;;;;;5061344;28;20040;-75
2021/09/16 05:26:26;;;;;;;14.23;5.88;;;15.00;99.90;;;;;;5064565;27;20075;-75
2021/09/16 05:28:52;;;;;;;11.27;6.18;;;15.10;99.90;;;;;;5078034;28;20410;-75
2021/09/16 05:31:18;;;;;;;9.65;5.13;;;15.10;99.90;;;;;;5067589;28;20065;-75
2021/09/16 05:33:44;;;;;;;14.65;6.22;;;15.10;99.90;;;;;;5050567;28;20121;-74
2021/09/16 05:36:10;;;;;;;12.40;6.50;;;15.10;99.90;;;;;;5062325;28;20036;-75
2021/09/16 05:38:36;;;;;;;12.98;6.40;;;15.10;99.90;;;;;;5034346;28;20085;-75
2021/09/16 05:41:02;;;;;;;14.00;6.47;;;15.10;99.90;;;;;;5062900;28;20144;-75
2021/09/16 05:43:28;;;;;;;9.85;5.72;;;15.10;99.90;;;;;;5050941;27;20079;-75
2021/09/16 05:45:54;;;;;;;14.05;6.88;;;15.10;99.90;;;;;;5084448;28;20562;-75
2021/09/16 05:48:21;;;;;;;18.77;7.40;;;15.10;99.90;;;;;;5084373;27;20042;-75
2021/09/16 05:50:47;;;;;;;18.63;7.60;;;15.10;99.90;;;;;;5080069;28;20044;-75
2021/09/16 05:53:13;;;;;;;12.93;6.47;;;15.20;99.90;;;;;;5079403;28;20050;-76
2021/09/16 05:55:46;;;;;;;11.43;5.63;;;15.20;99.90;;;;;;5089070;28;20073;-76
2021/09/16 05:58:11;;;;;;;14.02;6.50;;;15.20;99.90;;;;;;5085865;28;20032;-76
2021/09/16 06:00:37;;;;;;;15.77;7.60;;;15.30;99.90;;;;;;5054008;28;20528;-76
2021/09/16 06:03:04;;;;;;;11.43;6.75;;;15.30;99.90;;;;;;5052989;28;20156;-76
2021/09/16 06:05:30;;;;;;;14.00;6.97;;;15.20;99.90;;;;;;5053475;28;20524;-76
2021/09/16 06:07:56;;;;;;;14.40;6.43;;;15.40;99.90;;;;;;5080331;28;20516;-76
2021/09/16 06:10:25;;;;;;;13.40;6.25;;;15.40;99.90;;;;;;5059651;28;20044;-76
2021/09/16 06:12:50;;;;;;;14.20;6.40;;;15.40;99.90;;;;;;5077629;28;20581;-76
2021/09/16 06:15:16;;;;;;;12.70;6.57;;;15.40;99.90;;;;;;5060817;28;20043;-77
2021/09/16 06:17:42;;;;;;;16.90;6.32;;;15.40;99.90;;;;;;5065020;28;20131;-76
2021/09/16 06:20:09;;;;;;;11.70;6.43;;;15.40;99.90;;;;;;5053722;27;20028;-77
2021/09/16 06:22:35;;;;;;;11.00;5.80;;;15.50;99.90;;;;;;5080330;28;20069;-76
2021/09/16 06:25:01;;;;;;;14.73;6.22;;;15.50;99.90;;;;;;5050639;28;20092;-76
2021/09/16 06:27:27;;;;;;;13.20;5.70;;;15.60;99.90;;;;;;5081178;28;20044;-80
2021/09/16 06:29:53;;;;;;;12.52;5.47;;;15.60;99.90;;;;;;5066653;28;20059;-80
2021/09/16 06:32:19;;;;;;;13.13;5.43;;;15.60;99.90;;;;;;5068820;28;20545;-80
2021/09/16 06:34:45;;;;;;;12.85;5.70;;;15.70;99.90;;;;;;5080964;27;20495;-80
2021/09/16 06:37:11;;;;;;;11.73;4.72;;;15.70;99.90;;;;;;5035286;28;20051;-79
2021/09/16 06:39:37;;;;;;;12.57;5.13;;;15.70;99.90;;;;;;5086533;28;20523;-80
2021/09/16 06:42:03;;;;;;;13.77;4.45;;;15.70;99.90;;;;;;5064988;28;20051;-79
2021/09/16 06:44:29;;;;;;;8.23;4.30;;;15.80;99.90;;;;;;5050081;28;20039;-80
2021/09/16 06:46:55;;;;;;;12.23;5.25;;;15.90;99.90;;;;;;5054209;28;20119;-79
2021/09/16 06:49:21;;;;;;;11.77;4.40;;;15.90;99.90;;;;;;5085094;28;20507;-80
2021/09/16 06:51:47;;;;;;;11.95;4.18;;;15.90;99.90;;;;;;5053650;28;20047;-79
2021/09/16 06:54:13;;;;;;;8.15;3.65;;;16.00;99.90;;;;;;5085929;27;20039;-79
2021/09/16 06:56:39;;;;;;;7.88;3.75;;;16.00;99.90;;;;;;5057065;28;20079;-79
2021/09/16 06:59:05;;;;;;;6.00;3.20;;;16.00;99.90;;;;;;5052200;28;20040;-80
2021/09/16 07:01:33;;;;;;;10.40;3.88;;;16.00;99.90;;;;;;5064463;28;20047;-79
2021/09/16 07:04:02;;;;;;;8.43;3.33;;;16.00;99.90;;;;;;5061333;28;20047;-78
2021/09/16 07:06:28;;;;;;;6.18;2.90;;;16.00;99.90;;;;;;5085312;28;20051;-79
2021/09/16 07:08:54;;;;;;;8.82;2.97;;;16.10;99.90;;;;;;5048343;28;20054;-79
2021/09/16 07:11:20;;;;;;;8.65;3.40;;;16.10;99.90;;;;;;5087815;27;20036;-80
2021/09/16 07:13:46;;;;;;;9.25;3.67;;;16.10;99.90;;;;;;5079323;28;20414;-80
2021/09/16 07:16:12;;;;;;;9.68;3.55;;;16.20;99.90;;;;;;5055737;27;20042;-80
2021/09/16 07:18:40;;;;;;;10.20;3.08;;;16.20;99.90;;;;;;5091031;28;20043;-80
2021/09/16 07:21:06;;;;;;;9.98;3.63;;;16.20;99.90;;;;;;5063744;28;20494;-76
2021/09/16 07:23:32;;;;;;;9.32;4.00;;;16.30;99.90;;;;;;5094573;27;20050;-77
2021/09/16 07:25:58;;;;;;;6.95;3.30;;;16.30;99.90;;;;;;5053982;27;20545;-77
2021/09/16 07:28:24;;;;;;;8.10;3.72;;;16.40;99.90;;;;;;5056348;28;20126;-76
2021/09/16 07:30:50;;;;;;;9.65;3.25;;;16.40;99.90;;;;;;5081163;28;20498;-77
2021/09/16 07:33:16;;;;;;;9.23;3.20;;;16.40;99.90;;;;;;5073577;27;20058;-77
2021/09/16 07:35:42;;;;;;;7.95;3.22;;;16.50;99.90;;;;;;5067327;28;20050;-76
2021/09/16 07:38:08;;;;;;;9.07;3.15;;;16.50;99.90;;;;;;5062713;28;20054;-76
2021/09/16 07:40:34;;;;;;;9.00;3.30;;;16.50;99.90;;;;;;5048053;28;20044;-77
2021/09/16 07:43:00;;;;;;;8.43;3.13;;;16.60;99.90;;;;;;5056407;28;20051;-77
2021/09/16 07:45:26;;;;;;;9.50;3.92;;;16.60;99.90;;;;;;5031258;28;20164;-77
2021/09/16 07:47:52;;;;;;;9.52;3.88;;;16.60;99.90;;;;;;5044054;28;20503;-77
2021/09/16 07:50:18;;;;;;;9.13;3.42;;;16.70;99.90;;;;;;5031258;28;20067;-77
2021/09/16 07:52:43;;;;;;;8.02;3.60;;;16.80;99.90;;;;;;5051054;28;20043;-77
2021/09/16 07:55:15;;;;;;;10.35;2.97;;;16.80;99.90;;;;;;5067306;28;20096;-76
2021/09/16 07:57:41;;;;;;;10.13;3.47;;;16.90;99.90;;;;;;5078847;28;20074;-77
2021/09/16 08:00:07;;;;;;;11.57;3.88;;;16.90;99.90;;;;;;5075422;28;20041;-77
2021/09/16 08:02:42;;;;;;;11.10;3.28;;;16.90;99.90;;;;;;5066520;28;20040;-77
2021/09/16 08:05:08;;;;;;;10.93;3.33;;;17.00;99.90;;;;;;5045837;28;20052;-77
2021/09/16 08:07:34;;;;;;;9.35;3.25;;;17.00;99.90;;;;;;5073907;28;20082;-77
2021/09/16 08:10:00;;;;;;;12.65;3.08;;;17.00;99.90;;;;;;5066751;28;20048;-76
2021/09/16 08:12:26;;;;;;;9.00;2.90;;;17.00;99.90;;;;;;5061836;28;20043;-77
2021/09/16 08:14:52;;;;;;;7.55;2.92;;;17.00;99.90;;;;;;5083286;28;20466;-77
2021/09/16 08:17:18;;;;;;;9.93;3.50;;;17.10;99.90;;;;;;5065963;28;20121;-77
2021/09/16 08:19:44;;;;;;;10.57;2.70;;;17.10;99.90;;;;;;5076672;28;20044;-76
2021/09/16 08:22:10;;;;;;;6.63;2.58;;;17.10;99.90;;;;;;5047961;28;20524;-76
2021/09/16 08:24:36;;;;;;;10.20;3.05;;;17.20;99.90;;;;;;5060130;28;20047;-76
2021/09/16 08:27:03;;;;;;;9.13;3.00;;;17.20;99.90;;;;;;5080657;28;20036;-80
2021/09/16 08:29:30;;;;;;;8.95;2.72;;;17.20;99.90;;;;;;5047062;28;20402;-77
2021/09/16 08:31:56;;;;;;;12.07;2.78;;;17.30;99.90;;;;;;5065197;28;20060;-77
2021/09/16 08:34:29;;;;;;;8.25;2.65;;;17.40;99.90;;;;;;5049746;28;20044;-77
2021/09/16 08:36:56;;;;;;;7.13;2.67;;;17.40;99.90;;;;;;5080866;28;20056;-76
2021/09/16 08:39:25;;;;;;;10.38;2.80;;;17.50;99.90;;;;;;5057577;28;20060;-77
2021/09/16 08:41:51;;;;;;;10.20;2.80;;;17.50;99.90;;;;;;5054882;28;20506;-77
2021/09/16 08:44:18;;;;;;;9.23;2.70;;;17.50;99.90;;;;;;5083200;28;20065;-77
2021/09/16 08:46:44;;;;;;;8.52;2.78;;;17.60;99.90;;;;;;5054276;28;21105;-78
2021/09/16 08:49:10;;;;;;;6.40;2.72;;;17.60;99.90;;;;;;5081383;28;20058;-77
2021/09/16 08:51:40;;;;;;;11.73;2.53;;;17.70;99.90;;;;;;5053968;28;20398;-77
2021/09/16 08:54:08;;;;;;;5.70;2.17;;;17.80;99.90;;;;;;5080711;28;20032;-78
2021/09/16 08:56:35;;;;;;;7.65;2.35;;;17.80;99.90;;;;;;5080376;28;20047;-77
2021/09/16 08:59:05;;;;;;;8.98;2.30;;;17.80;99.90;;;;;;5057510;28;20040;-77
2021/09/16 09:01:31;;;;;;;6.78;2.30;;;17.70;99.90;;;;;;5066287;28;20039;-76
2021/09/16 09:03:57;;;;;;;6.63;2.55;;;17.70;99.90;;;;;;5062533;28;20050;-79
2021/09/16 09:06:38;;;;;;;8.18;2.30;;;17.60;99.90;;;;;;5064862;28;20043;-77
2021/09/16 09:09:18;;;;;;;7.60;1.90;;;17.50;99.90;;;;;;5048061;28;21431;-78
2021/09/16 09:11:51;;;;;;;10.13;2.97;;;17.50;99.90;;;;;;5089704;28;20077;-77
2021/09/16 09:14:19;;;;;;;9.18;2.67;;;17.50;99.90;;;;;;5081498;28;20093;-77
2021/09/16 09:16:45;;;;;;;6.82;2.20;;;17.50;99.90;;;;;;5074182;28;20361;-77
2021/09/16 09:19:16;;;;;;;10.75;2.20;;;17.60;99.90;;;;;;5064760;28;20036;-77
2021/09/16 09:21:44;;;;;;;9.13;2.00;;;17.70;99.90;;;;;;5062590;28;20131;-76
2021/09/16 09:24:09;;;;;;;8.55;1.92;;;17.90;99.90;;;;;;5064490;28;20075;-78
2021/09/16 09:26:44;;;;;;;8.10;2.25;;;18.10;99.90;;;;;;5074758;28;20151;-78
2021/09/16 09:29:15;;;;;;;6.28;1.73;;;18.20;99.90;;;;;;5068678;28;20513;-77
2021/09/16 09:31:59;;;;;;;9.65;1.80;;;18.20;99.90;;;;;;5063286;28;20051;-77
2021/09/16 09:34:25;;;;;;;4.32;1.30;;;18.40;99.90;;;;;;5084281;28;20076;-77
2021/09/16 09:37:04;;;;;;;4.22;1.30;;;18.50;99.90;;;;;;5065537;28;20141;-75
2021/09/16 09:39:31;;;;;;;6.22;1.90;;;18.50;99.90;;;;;;5085398;28;20048;-77
2021/09/16 09:42:24;;;;;;;7.00;1.50;;;18.50;99.90;;;;;;5074963;28;20048;-76
2021/09/16 09:45:08;;;;;;;5.85;1.65;;;18.50;99.90;;;;;;5069691;28;20048;-77
2021/09/16 09:47:39;;;;;;;5.47;1.48;;;18.50;99.90;;;;;;5066817;28;20039;-78
2021/09/16 09:50:19;;;;;;;3.75;1.35;;;18.70;99.90;;;;;;5066213;28;20054;-76
2021/09/16 09:52:46;;;;;;;5.70;1.77;;;19.00;99.90;;;;;;5087439;27;20054;-76
2021/09/16 09:55:17;;;;;;;6.70;1.42;;;19.20;99.90;;;;;;5068332;28;20043;-76
2021/09/16 09:57:44;;;;;;;6.18;1.55;;;19.40;99.90;;;;;;5097028;27;20052;-77
2021/09/16 10:00:21;;;;;;;10.93;1.52;;;19.40;99.90;;;;;;5077524;28;20040;-75
2021/09/16 10:02:55;;;;;;;9.02;1.42;;;19.30;99.90;;;;;;5084797;28;20055;-76
2021/09/16 10:05:35;;;;;;;4.45;1.10;;;19.10;99.90;;;;;;5086915;28;20070;-77
2021/09/16 10:08:11;;;;;;;10.50;1.85;;;18.90;99.70;;;;;;5072047;28;20048;-77
2021/09/16 10:10:39;;;;;;;5.10;1.20;;;18.80;99.90;;;;;;5081644;28;20092;-76
2021/09/16 10:13:08;;;;;;;6.43;1.10;;;18.80;99.90;;;;;;5064429;28;20475;-76
2021/09/16 10:15:36;;;;;;;3.50;1.48;;;18.90;99.70;;;;;;5072614;28;20059;-77
2021/09/16 10:18:02;;;;;;;7.00;1.92;;;18.80;99.60;;;;;;5059298;28;20148;-77
2021/09/16 10:20:29;;;;;;;3.65;1.10;;;18.70;99.10;;;;;;5067496;28;20135;-78
2021/09/16 10:23:00;;;;;;;5.70;1.35;;;18.50;99.50;;;;;;5049623;28;20679;-77
2021/09/16 10:25:28;;;;;;;7.85;1.38;;;18.40;99.90;;;;;;5046297;28;20116;-77
2021/09/16 10:28:07;;;;;;;6.15;1.45;;;18.30;99.90;;;;;;5076786;28;20104;-77
2021/09/16 10:30:40;;;;;;;4.50;1.35;;;18.30;99.90;;;;;;5067600;28;20032;-77
2021/09/16 10:33:18;;;;;;;5.28;1.45;;;18.30;99.90;;;;;;5057491;28;20078;-77
2021/09/16 10:36:06;;;;;;;4.75;1.23;;;18.30;99.90;;;;;;5074757;28;20076;-77
2021/09/16 10:38:52;;;;;;;7.20;2.00;;;18.20;99.90;;;;;;5075737;28;20036;-77
2021/09/16 10:41:29;;;;;;;6.95;1.33;;;18.30;99.90;;;;;;5052691;28;20052;-78
2021/09/16 10:43:59;;;;;;;5.63;1.20;;;18.40;99.90;;;;;;5059151;28;20126;-77
2021/09/16 10:46:39;;;;;;;5.85;1.52;;;18.50;99.70;;;;;;5064639;28;20449;-78
2021/09/16 10:49:20;;;;;;;4.88;1.20;;;18.50;99.60;;;;;;5054637;28;20040;-77
2021/09/16 10:51:47;;;;;;;7.75;2.05;;;18.60;99.90;;;;;;5071088;28;20032;-77
2021/09/16 10:54:29;;;;;;;8.43;1.42;;;18.70;99.90;;;;;;5062144;28;20504;-77
2021/09/16 10:57:02;;;;;;;5.50;1.27;;;18.80;99.90;;;;;;5045950;28;20041;-77
2021/09/16 10:59:47;;;;;;;4.35;1.13;;;18.70;99.90;;;;;;5066528;28;20163;-77
2021/09/16 11:02:16;;;;;;;5.15;1.23;;;18.70;99.10;;;;;;5074503;28;20495;-77
2021/09/16 11:04:57;;;;;;;4.88;1.33;;;18.60;99.20;;;;;;5030969;28;20048;-77
2021/09/16 11:07:50;;;;;;;5.00;1.48;;;18.60;99.50;;;;;;5081190;28;20507;-77
2021/09/16 11:10:16;;;;;;;5.78;1.30;;;18.60;99.20;;;;;;5069042;28;20071;-78
2021/09/16 11:12:50;;;;;;;5.07;1.20;;;18.50;99.10;;;;;;5079166;28;20522;-77
2021/09/16 11:15:39;;;;;;;4.43;1.20;;;18.50;98.60;;;;;;5064478;28;20074;-77
2021/09/16 11:18:14;;;;;;;3.23;1.20;;;18.50;98.50;;;;;;5079210;28;20115;-77
2021/09/16 11:20:45;;;;;;;3.53;1.15;;;18.50;98.90;;;;;;5076170;28;20846;-77
2021/09/16 11:23:12;;;;;;;3.95;1.15;;;18.50;99.60;;;;;;5067416;28;20517;-77
2021/09/16 11:25:40;;;;;;;4.45;1.27;;;18.70;99.90;;;;;;5046090;28;20240;-77
2021/09/16 11:28:07;;;;;;;7.20;1.65;;;18.80;99.60;;;;;;5077708;28;20072;-77
2021/09/16 11:30:36;;;;;;;3.70;1.00;;;18.80;99.20;;;;;;5080317;28;20048;-77
2021/09/16 11:33:07;;;;;;;4.40;1.23;;;18.80;98.90;;;;;;5060134;28;20040;-77
2021/09/16 11:35:37;;;;;;;6.45;1.80;;;18.80;98.80;;;;;;5084504;28;20043;-76
2021/09/16 11:38:07;;;;;;;5.75;1.35;;;18.80;99.00;;;;;;5060476;28;20056;-82
2021/09/16 11:40:35;;;;;;;6.75;1.27;;;18.80;98.80;;;;;;5050487;28;20040;-77
2021/09/16 11:43:04;;;;;;;3.55;1.20;;;18.70;97.70;;;;;;5085754;28;20406;-77
2021/09/16 11:45:42;;;;;;;3.97;1.38;;;18.50;98.20;;;;;;5062202;28;20142;-77
2021/09/16 11:48:16;;;;;;;3.47;1.40;;;18.50;98.60;;;;;;5073710;28;20051;-77
2021/09/16 11:50:50;;;;;;;6.35;1.30;;;18.50;98.70;;;;;;5073515;28;20055;-77
2021/09/16 11:53:42;;;;;;;4.30;1.83;;;18.60;99.30;;;;;;5061844;28;20040;-77
2021/09/16 11:56:09;;;;;;;8.23;1.52;;;18.70;99.40;;;;;;5057920;28;20052;-76
2021/09/16 11:58:38;;;;;;;4.35;1.30;;;18.80;99.60;;;;;;5041703;28;20395;-76
2021/09/16 12:01:22;;;;;;;5.47;1.88;;;18.90;99.50;;;;;;5062550;28;21443;-76
2021/09/16 12:03:57;;;;;;;4.18;1.23;;;19.10;99.40;;;;;;5073007;28;20098;-76
2021/09/16 12:06:23;;;;;;;5.47;1.65;;;19.20;98.40;;;;;;5046408;28;20047;-76
2021/09/16 12:09:01;;;;;;;5.13;1.50;;;19.30;98.10;;;;;;5062082;28;20051;-76
2021/09/16 12:11:31;;;;;;;3.42;1.27;;;19.50;97.70;;;;;;5065685;28;20491;-75
2021/09/16 12:14:02;;;;;;;5.25;1.50;;;19.50;97.40;;;;;;5075191;28;20139;-76
2021/09/16 12:16:36;;;;;;;3.13;1.17;;;19.60;97.30;;;;;;5056176;28;20036;-76
2021/09/16 12:19:13;;;;;;;6.90;1.90;;;19.70;96.70;;;;;;5048146;28;20109;-76
2021/09/16 12:21:53;;;;;;;7.90;1.83;;;19.80;96.70;;;;;;5061433;28;20131;-77
2021/09/16 12:24:22;;;;;;;4.85;1.45;;;19.90;96.70;;;;;;5059122;28;20040;-75
2021/09/16 12:26:51;;;;;;;6.68;1.85;;;20.00;96.30;;;;;;5080767;28;20059;-76
2021/09/16 12:29:24;;;;;;;5.00;1.42;;;20.00;96.80;;;;;;5068696;28;20079;-76
2021/09/16 12:31:57;;;;;;;5.18;1.40;;;20.10;96.30;;;;;;5083125;28;20577;-76
2021/09/16 12:34:35;;;;;;;7.05;1.50;;;20.10;96.40;;;;;;5060156;28;20147;-76
2021/09/16 12:37:09;;;;;;;3.38;1.15;;;20.00;96.40;;;;;;5058798;28;20094;-76
2021/09/16 12:39:43;;;;;;;4.40;1.27;;;19.90;96.00;;;;;;5058914;28;20057;-76
2021/09/16 12:42:09;;;;;;;4.25;1.40;;;19.80;96.10;;;;;;5078053;28;20046;-76
2021/09/16 12:44:37;;;;;;;4.97;1.33;;;19.80;96.60;;;;;;5080311;28;20490;-76
2021/09/16 12:47:09;;;;;;;7.00;1.35;;;20.00;96.20;;;;;;5075109;28;20075;-77
2021/09/16 12:49:48;;;;;;;4.95;1.30;;;20.30;95.80;;;;;;5078237;28;20042;-77
2021/09/16 12:52:24;;;;;;;5.00;1.58;;;20.50;96.20;;;;;;5066514;28;20567;-76